Time;durP1;ratioP1;P1;durP2;ratioP2;P2;SDS_P1;SDS_P2;PMS_P1;PMS_P2;Temp;Humidity;BMP_temperature;BMP_pressure;BME280_temperature;BME280_humidity;BME280_pressure;Samples;Min_cycle;Max_cycle;Signal;HPM_P1;HPM_P2
2021/10/26 00:00:33;;;;;;;5.40;3.70;;;;;;;1.84;77.48;98194.81;6168945;28;20213;-70
2021/10/26 00:03:35;;;;;;;4.93;3.83;;;;;;;1.80;77.43;98190.63;6171102;28;20260;-69
2021/10/26 00:06:38;;;;;;;6.83;4.30;;;;;;;1.73;77.37;98197.81;6168766;28;20424;-70
2021/10/26 00:09:41;;;;;;;7.50;4.90;;;;;;;1.66;77.56;98205.91;6170426;28;20673;-70
2021/10/26 00:12:43;;;;;;;6.63;5.30;;;;;;;1.61;77.95;98210.41;6153572;28;20539;-70
2021/10/26 00:15:46;;;;;;;7.67;4.53;;;;;;;1.55;77.89;98202.84;6170328;28;20197;-70
2021/10/26 00:18:48;;;;;;;6.10;3.73;;;;;;;1.47;78.01;98196.16;6170485;28;20204;-70
2021/10/26 00:21:50;;;;;;;6.33;4.00;;;;;;;1.43;78.49;98199.78;6170256;28;20572;-69
2021/10/26 00:24:52;;;;;;;5.73;4.43;;;;;;;1.34;78.50;98205.31;6170338;28;20206;-70
2021/10/26 00:27:54;;;;;;;7.23;4.27;;;;;;;1.28;78.68;98207.28;6170482;28;20280;-70
2021/10/26 00:30:58;;;;;;;6.83;4.30;;;;;;;1.24;79.34;98211.72;6162699;28;20622;-69
2021/10/26 00:34:00;;;;;;;7.50;4.70;;;;;;;1.22;79.40;98208.31;6152864;28;20186;-70
2021/10/26 00:37:03;;;;;;;8.50;5.60;;;;;;;1.17;79.25;98210.25;6132031;28;20229;-70
2021/10/26 00:40:08;;;;;;;10.40;6.17;;;;;;;1.14;79.30;98212.09;6170422;28;20186;-71
2021/10/26 00:43:10;;;;;;;6.90;5.00;;;;;;;1.08;79.38;98213.16;6168862;28;20252;-69
2021/10/26 00:46:12;;;;;;;5.37;4.50;;;;;;;1.04;79.22;98215.00;6152418;28;20213;-70
2021/10/26 00:49:14;;;;;;;6.87;4.73;;;;;;;0.97;79.68;98216.13;6153226;28;20232;-70
2021/10/26 00:52:17;;;;;;;9.13;4.37;;;;;;;0.93;79.74;98211.91;6170846;28;20209;-70
2021/10/26 00:55:23;;;;;;;8.93;5.00;;;;;;;0.93;79.92;98216.25;6154518;28;20258;-69
2021/10/26 00:58:25;;;;;;;7.70;4.33;;;;;;;0.92;79.75;98209.34;6159731;28;20190;-70
2021/10/26 01:01:29;;;;;;;6.33;4.37;;;;;;;0.88;79.74;98211.22;6173243;28;20194;-69
2021/10/26 01:04:31;;;;;;;7.43;4.67;;;;;;;0.85;80.23;98213.91;6174040;28;20229;-70
2021/10/26 01:07:34;;;;;;;9.50;4.70;;;;;;;0.84;80.10;98216.56;6173368;28;20292;-70
2021/10/26 01:10:37;;;;;;;6.63;4.57;;;;;;;0.80;80.67;98217.59;6157029;28;20296;-71
2021/10/26 01:13:40;;;;;;;5.80;4.20;;;;;;;0.78;80.70;98217.63;6172926;28;20194;-70
2021/10/26 01:16:43;;;;;;;8.23;4.70;;;;;;;0.75;80.78;98225.50;6157287;28;20237;-69
2021/10/26 01:19:55;;;;;;;5.67;4.33;;;;;;;0.68;80.48;98222.28;6173622;28;20237;-70
2021/10/26 01:22:58;;;;;;;4.93;4.20;;;;;;;0.64;80.44;98222.41;6156865;28;20322;-71
2021/10/26 01:26:00;;;;;;;11.03;5.40;;;;;;;0.57;80.47;98224.34;6172871;28;20674;-72
2021/10/26 01:29:03;;;;;;;10.13;5.90;;;;;;;0.50;80.98;98228.03;6156409;28;20688;-69
2021/10/26 01:32:11;;;;;;;6.87;5.10;;;;;;;0.47;80.87;98228.13;6144535;28;20198;-70
2021/10/26 01:35:17;;;;;;;7.87;5.47;;;;;;;0.43;80.83;98226.53;6156176;28;20233;-71
2021/10/26 01:38:23;;;;;;;7.97;5.03;;;;;;;0.39;81.56;98224.94;6172356;28;20224;-71
2021/10/26 01:41:25;;;;;;;8.63;4.73;;;;;;;0.35;81.17;98228.50;6156584;28;20257;-70
2021/10/26 01:44:28;;;;;;;9.03;5.07;;;;;;;0.30;81.42;98230.41;6171968;28;20257;-70
2021/10/26 01:47:38;;;;;;;5.73;4.60;;;;;;;0.27;81.62;98227.91;6172639;28;20316;-70
2021/10/26 01:50:43;;;;;;;7.40;4.90;;;;;;;0.23;81.28;98231.47;6156525;28;20273;-70
2021/10/26 01:53:45;;;;;;;9.83;5.37;;;;;;;0.23;81.69;98234.06;6172628;28;20204;-70
2021/10/26 01:56:49;;;;;;;7.67;5.07;;;;;;;0.19;81.68;98228.16;6166043;28;20297;-70
2021/10/26 02:00:18;;;;;;;7.43;5.07;;;;;;;0.15;81.52;98231.72;6170087;28;20202;-70
2021/10/26 02:03:21;;;;;;;7.40;5.00;;;;;;;0.14;81.83;98239.53;6155718;28;20220;-70
2021/10/26 02:06:27;;;;;;;7.63;4.57;;;;;;;0.11;81.64;98242.22;6171144;28;20221;-70
2021/10/26 02:09:29;;;;;;;7.53;5.30;;;;;;;0.07;81.47;98249.25;6173505;28;20194;-70
2021/10/26 02:12:32;;;;;;;11.07;5.47;;;;;;;0.01;81.37;98252.00;6173080;28;20213;-71
2021/10/26 02:15:34;;;;;;;11.67;6.93;;;;;;;-0.06;81.43;98253.09;6171760;28;20202;-70
2021/10/26 02:18:37;;;;;;;9.00;5.70;;;;;;;-0.10;81.81;98252.31;6171844;28;20206;-71
2021/10/26 02:21:39;;;;;;;9.37;6.10;;;;;;;-0.09;81.67;98255.75;6171437;28;20209;-70
2021/10/26 02:24:41;;;;;;;9.23;6.07;;;;;;;-0.11;81.66;98261.03;6171239;28;20209;-70
2021/10/26 02:27:43;;;;;;;9.27;6.47;;;;;;;-0.15;81.16;98274.09;6155387;28;20202;-70
2021/10/26 02:30:46;;;;;;;7.40;5.33;;;;;;;-0.21;82.04;98259.59;6169784;28;20195;-71
2021/10/26 02:33:48;;;;;;;7.87;5.00;;;;;;;-0.22;81.86;98259.63;6172896;28;20186;-70
2021/10/26 02:36:50;;;;;;;8.73;5.23;;;;;;;-0.22;81.75;98257.88;6171747;28;20233;-70
2021/10/26 02:39:53;;;;;;;6.73;4.90;;;;;;;-0.23;81.95;98261.38;6171225;28;20652;-70
2021/10/26 02:42:56;;;;;;;8.83;5.03;;;;;;;-0.27;82.13;98257.16;6170793;28;20206;-70
2021/10/26 02:46:01;;;;;;;7.77;5.27;;;;;;;-0.31;82.20;98254.69;6170926;28;20310;-70
2021/10/26 02:49:03;;;;;;;8.90;4.80;;;;;;;-0.37;81.86;98250.50;6155291;28;20238;-70
2021/10/26 02:52:06;;;;;;;6.87;4.67;;;;;;;-0.39;81.94;98244.50;6146673;29;20598;-72
2021/10/26 02:55:08;;;;;;;5.23;4.50;;;;;;;-0.37;82.12;98248.78;6146588;29;20214;-70
2021/10/26 02:58:10;;;;;;;6.97;4.43;;;;;;;-0.31;82.40;98246.91;6130649;29;20206;-70
2021/10/26 03:01:13;;;;;;;10.27;5.07;;;;;;;-0.27;81.88;98249.38;6147338;29;20198;-70
2021/10/26 03:04:16;;;;;;;6.33;5.20;;;;;;;-0.29;82.35;98256.31;6146822;29;20659;-71
2021/10/26 03:07:18;;;;;;;6.07;4.90;;;;;;;-0.33;82.42;98252.13;6146361;29;20263;-70
2021/10/26 03:10:20;;;;;;;7.27;4.70;;;;;;;-0.35;82.14;98256.50;6147037;29;20202;-69
2021/10/26 03:13:23;;;;;;;6.77;4.60;;;;;;;-0.35;82.64;98261.69;6146363;29;20195;-70
2021/10/26 03:16:25;;;;;;;6.70;4.97;;;;;;;-0.36;82.23;98257.41;6145429;28;20261;-70
2021/10/26 03:19:27;;;;;;;6.60;5.03;;;;;;;-0.38;82.33;98257.44;6147338;29;20199;-70
2021/10/26 03:22:29;;;;;;;6.90;4.63;;;;;;;-0.42;82.60;98261.03;6146273;29;20201;-70
2021/10/26 03:25:32;;;;;;;4.73;4.13;;;;;;;-0.45;82.28;98260.25;6146343;29;20225;-70
2021/10/26 03:28:34;;;;;;;7.83;4.67;;;;;;;-0.46;82.28;98261.13;6146178;29;20493;-70
2021/10/26 03:31:36;;;;;;;5.00;4.37;;;;;;;-0.49;82.45;98264.66;6130862;29;20656;-71
2021/10/26 03:35:17;;;;;;;5.90;4.13;;;;;;;-0.48;82.69;98271.53;6146866;29;20215;-70
2021/10/26 03:38:19;;;;;;;5.50;3.80;;;;;;;-0.49;82.84;98267.25;6146352;28;20587;-69
2021/10/26 03:41:22;;;;;;;7.27;4.47;;;;;;;-0.51;82.74;98273.38;6146217;29;20202;-71
2021/10/26 03:44:24;;;;;;;10.03;4.57;;;;;;;-0.57;82.66;98271.78;6145856;29;20268;-71
2021/10/26 03:47:26;;;;;;;7.87;4.77;;;;;;;-0.60;82.49;98282.22;6150207;28;20330;-70
2021/10/26 03:50:29;;;;;;;6.17;4.87;;;;;;;-0.62;82.64;98283.19;6153546;28;20202;-70
2021/10/26 03:53:32;;;;;;;7.67;4.87;;;;;;;-0.63;82.86;98276.28;6170989;28;20189;-71
2021/10/26 03:56:34;;;;;;;10.07;5.53;;;;;;;-0.63;83.26;98277.16;6158878;28;20198;-70
2021/10/26 03:59:41;;;;;;;7.13;5.70;;;;;;;-0.66;82.93;98277.22;6153923;28;20198;-69
2021/10/26 04:02:48;;;;;;;8.43;6.20;;;;;;;-0.66;83.15;98277.22;6169778;28;20190;-70
2021/10/26 04:09:04;;;;;;;9.30;6.63;;;;;;;-0.64;83.46;98285.81;6153647;28;20210;-70
2021/10/26 04:12:28;;;;;;;8.73;6.50;;;;;;;-0.62;82.88;98286.63;6169256;28;20194;-69
2021/10/26 04:15:32;;;;;;;10.43;7.67;;;;;;;-0.65;83.22;98281.50;6169916;28;20202;-70
2021/10/26 04:18:35;;;;;;;11.10;7.50;;;;;;;-0.66;83.41;98278.97;6170217;28;20600;-70
2021/10/26 04:21:37;;;;;;;11.10;8.23;;;;;;;-0.68;82.79;98273.81;6169540;28;20209;-71
2021/10/26 04:24:39;;;;;;;13.07;8.43;;;;;;;-0.67;83.24;98279.84;6170420;28;20345;-70
2021/10/26 04:27:41;;;;;;;12.37;8.57;;;;;;;-0.68;83.04;98265.19;6156080;28;20333;-70
2021/10/26 04:30:44;;;;;;;12.10;8.80;;;;;;;-0.68;83.37;98270.38;6152787;28;20206;-70
2021/10/26 04:33:51;;;;;;;13.13;8.17;;;;;;;-0.66;83.59;98269.44;6156639;28;20205;-70
2021/10/26 04:36:55;;;;;;;11.87;8.37;;;;;;;-0.65;83.31;98272.88;6157532;28;20727;-71
2021/10/26 04:39:59;;;;;;;18.07;11.30;;;;;;;-0.64;83.51;98278.03;6158273;28;20214;-71
2021/10/26 04:43:02;;;;;;;14.90;9.80;;;;;;;-0.63;83.59;98274.56;6157686;28;20194;-70
2021/10/26 04:46:04;;;;;;;18.47;10.30;;;;;;;-0.63;83.61;98284.06;6173987;28;20206;-69
2021/10/26 04:49:07;;;;;;;14.23;10.40;;;;;;;-0.62;83.78;98273.66;6155611;28;20389;-71
2021/10/26 04:52:09;;;;;;;16.10;13.07;;;;;;;-0.66;83.79;98274.63;6150020;29;20206;-72
2021/10/26 04:55:12;;;;;;;15.40;11.03;;;;;;;-0.69;83.75;98282.47;6148009;29;20269;-70
2021/10/26 04:58:14;;;;;;;17.27;11.60;;;;;;;-0.71;83.79;98288.59;6125554;29;20274;-71
2021/10/26 05:01:18;;;;;;;17.33;13.63;;;;;;;-0.73;83.65;98282.59;6147044;29;20292;-70
2021/10/26 05:04:20;;;;;;;20.33;13.77;;;;;;;-0.76;83.70;98286.97;6148478;29;20222;-71
2021/10/26 05:07:22;;;;;;;20.40;13.70;;;;;;;-0.75;83.08;98293.00;6134195;29;20222;-70
2021/10/26 05:10:25;;;;;;;16.83;11.50;;;;;;;-0.71;83.58;98297.22;6149142;29;20597;-73
2021/10/26 05:13:29;;;;;;;17.27;12.83;;;;;;;-0.67;83.53;98291.06;6149540;29;20690;-70
2021/10/26 05:16:53;;;;;;;16.10;11.83;;;;;;;-0.64;83.58;98305.69;6149194;29;20210;-70
2021/10/26 05:20:16;;;;;;;19.60;13.97;;;;;;;-0.71;83.56;98299.81;6150133;29;20588;-70
2021/10/26 05:23:45;;;;;;;20.17;13.63;;;;;;;-0.77;83.44;98305.16;6149304;29;20215;-71
2021/10/26 05:26:55;;;;;;;19.37;13.17;;;;;;;-0.81;83.40;98306.13;6148504;29;20210;-71
2021/10/26 05:29:57;;;;;;;21.60;14.67;;;;;;;-0.79;83.68;98306.91;6150318;29;20768;-71
2021/10/26 05:32:59;;;;;;;20.03;14.17;;;;;;;-0.81;83.78;98306.97;6126270;29;20196;-70
2021/10/26 05:36:03;;;;;;;18.33;13.90;;;;;;;-0.82;83.60;98312.19;6131233;29;20572;-71
2021/10/26 05:39:07;;;;;;;21.80;14.17;;;;;;;-0.82;83.75;98318.22;6147768;28;20223;-71
2021/10/26 05:42:09;;;;;;;18.73;12.97;;;;;;;-0.83;83.67;98320.84;6148249;29;20206;-70
2021/10/26 05:45:11;;;;;;;22.17;15.17;;;;;;;-0.82;83.78;98325.16;6148608;29;20222;-69
2021/10/26 05:48:16;;;;;;;18.50;13.23;;;;;;;-0.82;83.77;98325.16;6148175;28;20726;-71
2021/10/26 05:51:18;;;;;;;21.87;15.30;;;;;;;-0.82;83.65;98328.59;6149637;29;20205;-71
2021/10/26 05:54:20;;;;;;;20.73;14.87;;;;;;;-0.78;83.87;98326.75;6147879;29;20671;-71
2021/10/26 05:57:23;;;;;;;18.93;13.67;;;;;;;-0.74;83.94;98333.56;6147609;29;20198;-70
2021/10/26 06:00:26;;;;;;;22.13;15.43;;;;;;;-0.70;84.02;98331.78;6149300;29;20642;-70
2021/10/26 06:03:28;;;;;;;24.60;15.40;;;;;;;-0.66;83.85;98330.78;6147594;29;20226;-71
2021/10/26 06:06:32;;;;;;;23.70;15.13;;;;;;;-0.60;83.87;98347.03;6147209;29;20696;-70
2021/10/26 06:09:35;;;;;;;20.20;15.77;;;;;;;-0.57;83.70;98348.69;6148796;29;20199;-71
2021/10/26 06:12:43;;;;;;;20.87;15.60;;;;;;;-0.51;83.91;98344.22;6147572;29;20246;-71
2021/10/26 06:15:45;;;;;;;21.07;15.40;;;;;;;-0.44;83.90;98345.75;6148871;29;20725;-70
2021/10/26 06:18:52;;;;;;;23.07;14.93;;;;;;;-0.35;83.65;98349.00;6147176;29;20561;-70
2021/10/26 06:21:55;;;;;;;21.47;15.27;;;;;;;-0.28;83.89;98343.59;6147687;29;20245;-70
2021/10/26 06:24:57;;;;;;;22.50;15.77;;;;;;;-0.23;83.82;98351.28;6131345;29;20338;-70
2021/10/26 06:27:59;;;;;;;23.03;14.70;;;;;;;-0.18;83.90;98341.63;6147141;29;20235;-70
2021/10/26 06:31:02;;;;;;;21.37;14.00;;;;;;;-0.11;83.99;98350.97;6140660;29;20554;-70
2021/10/26 06:34:09;;;;;;;19.43;13.50;;;;;;;-0.06;83.97;98360.31;6124891;29;20209;-70
2021/10/26 06:37:11;;;;;;;20.33;15.10;;;;;;;0.03;84.16;98353.16;6147413;28;20226;-70
2021/10/26 06:40:15;;;;;;;22.23;14.00;;;;;;;0.13;83.79;98368.44;6146717;29;20213;-70
2021/10/26 06:43:38;;;;;;;20.70;13.63;;;;;;;0.22;83.64;98364.72;6147224;29;20215;-71
2021/10/26 06:46:59;;;;;;;19.60;15.23;;;;;;;0.33;83.69;98363.53;6148231;28;20667;-71
2021/10/26 06:50:28;;;;;;;20.43;15.87;;;;;;;0.43;83.88;98371.06;6156149;28;20205;-70
2021/10/26 06:53:57;;;;;;;21.67;14.47;;;;;;;0.55;83.92;98376.75;6155650;28;20733;-71
2021/10/26 06:57:20;;;;;;;20.77;14.10;;;;;;;0.68;83.47;98379.84;6162922;28;20202;-71
2021/10/26 07:00:42;;;;;;;19.37;13.63;;;;;;;0.77;82.94;98381.31;6171622;28;20566;-71
2021/10/26 07:04:03;;;;;;;20.37;15.83;;;;;;;0.87;83.48;98373.22;6170969;28;20210;-70
2021/10/26 07:07:15;;;;;;;22.87;15.50;;;;;;;0.94;83.17;98369.50;6136317;28;20205;-70
2021/10/26 07:10:23;;;;;;;21.40;15.20;;;;;;;1.05;82.83;98367.44;6169931;28;20198;-70
2021/10/26 07:13:40;;;;;;;22.50;14.70;;;;;;;1.22;82.98;98377.28;6170156;28;20570;-71
2021/10/26 07:16:44;;;;;;;19.27;14.17;;;;;;;1.38;83.14;98375.06;6169574;28;20198;-70
2021/10/26 07:19:49;;;;;;;17.90;13.97;;;;;;;1.52;83.03;98375.44;6170375;28;20206;-71
2021/10/26 07:23:00;;;;;;;17.50;13.50;;;;;;;1.70;82.82;98368.78;6171398;28;20218;-70
2021/10/26 07:26:25;;;;;;;18.10;13.37;;;;;;;1.90;82.80;98373.34;6178385;28;20732;-70
2021/10/26 07:29:29;;;;;;;17.90;12.83;;;;;;;2.05;82.38;98373.63;6154101;28;20198;-71
2021/10/26 07:32:31;;;;;;;18.77;12.70;;;;;;;2.18;82.19;98371.47;6152982;28;20261;-71
2021/10/26 07:35:54;;;;;;;20.90;13.93;;;;;;;2.32;82.02;98376.16;6161543;28;20592;-69
2021/10/26 07:39:01;;;;;;;17.07;12.27;;;;;;;2.53;81.98;98377.97;6159075;28;20267;-70
2021/10/26 07:42:03;;;;;;;17.00;11.93;;;;;;;2.76;81.77;98388.41;6169717;28;20194;-71
2021/10/26 07:45:33;;;;;;;15.30;12.20;;;;;;;2.99;81.49;98384.94;6169447;28;20213;-70
2021/10/26 07:48:36;;;;;;;16.67;10.40;;;;;;;3.20;81.67;98376.25;6144915;29;20247;-70
2021/10/26 07:51:38;;;;;;;14.97;11.17;;;;;;;3.39;81.38;98380.75;6147039;29;20263;-70
2021/10/26 07:54:41;;;;;;;14.80;11.10;;;;;;;3.55;81.09;98379.19;6128933;29;20206;-70
2021/10/26 07:57:43;;;;;;;14.53;10.60;;;;;;;3.78;81.54;98380.88;6123802;29;20216;-71
2021/10/26 08:00:46;;;;;;;15.60;10.50;;;;;;;4.02;80.81;98372.81;6125323;28;20343;-70
2021/10/26 08:04:07;;;;;;;14.40;10.57;;;;;;;4.37;79.95;98373.91;6146379;29;20216;-70
2021/10/26 08:07:16;;;;;;;13.20;10.53;;;;;;;4.72;79.93;98372.31;6129188;29;20214;-70
2021/10/26 08:10:20;;;;;;;14.63;10.33;;;;;;;5.02;79.25;98375.28;6144770;29;20200;-70
2021/10/26 08:13:22;;;;;;;12.57;9.23;;;;;;;5.30;78.66;98372.19;6145177;29;20256;-70
2021/10/26 08:16:24;;;;;;;13.27;8.03;;;;;;;5.65;77.92;98367.03;6144699;29;20684;-71
2021/10/26 08:19:28;;;;;;;9.17;7.20;;;;;;;6.03;76.20;98358.13;6145136;29;20569;-70
2021/10/26 08:22:38;;;;;;;8.60;6.50;;;;;;;6.39;75.16;98362.41;6144986;28;20227;-70
2021/10/26 08:25:43;;;;;;;10.97;6.63;;;;;;;6.58;74.55;98357.88;6145127;29;20229;-70
2021/10/26 08:28:48;;;;;;;6.83;5.93;;;;;;;6.64;74.41;98357.53;6144953;29;20199;-70
2021/10/26 08:35:24;;;;;;;7.23;5.33;;;;;;;6.86;73.38;98360.69;6131505;29;20211;-70
2021/10/26 08:38:28;;;;;;;7.37;4.57;;;;;;;6.87;74.45;98362.41;6144369;28;20274;-70
2021/10/26 08:41:46;;;;;;;6.20;4.63;;;;;;;7.09;74.18;98364.66;6144855;29;20247;-70
2021/10/26 08:44:50;;;;;;;5.77;4.27;;;;;;;7.37;73.83;98366.63;6144666;29;20234;-70
2021/10/26 08:47:53;;;;;;;9.53;5.30;;;;;;;7.71;72.51;98361.13;6151974;28;20241;-70
2021/10/26 08:51:16;;;;;;;5.30;4.07;;;;;;;8.10;70.90;98362.34;6149388;28;20210;-70
2021/10/26 08:54:19;;;;;;;6.50;4.50;;;;;;;8.37;70.10;98360.75;6168080;28;20186;-70
2021/10/26 08:57:47;;;;;;;5.13;4.13;;;;;;;8.72;68.25;98352.47;6155528;28;20198;-70
2021/10/26 09:01:08;;;;;;;6.77;4.37;;;;;;;9.03;65.78;98354.88;6169419;28;20200;-70
2021/10/26 09:04:20;;;;;;;7.17;4.13;;;;;;;9.31;65.62;98361.84;6167871;28;20268;-70
2021/10/26 09:07:25;;;;;;;5.43;4.40;;;;;;;9.59;63.82;98355.63;6151965;28;20313;-70
2021/10/26 09:10:30;;;;;;;6.43;5.20;;;;;;;9.89;63.23;98358.03;6168370;28;20206;-69
2021/10/26 09:18:00;;;;;;;9.67;6.50;;;;;;;10.31;61.16;98356.97;6174499;28;20313;-69
2021/10/26 09:21:30;;;;;;;10.33;5.87;;;;;;;10.49;60.72;98358.31;6173354;28;20665;-70
2021/10/26 09:24:35;;;;;;;6.20;5.00;;;;;;;10.48;61.51;98351.38;6172002;28;20638;-69
2021/10/26 09:27:37;;;;;;;9.33;6.97;;;;;;;10.71;60.09;98355.03;6172970;28;20213;-70
2021/10/26 09:30:41;;;;;;;8.43;6.10;;;;;;;10.90;59.88;98350.16;6167180;28;20564;-70
2021/10/26 09:33:43;;;;;;;6.27;4.70;;;;;;;11.17;60.41;98359.72;6169669;28;20236;-70
2021/10/26 09:36:52;;;;;;;7.50;5.70;;;;;;;11.39;58.81;98360.69;6172456;28;20214;-70
2021/10/26 09:39:56;;;;;;;8.47;5.90;;;;;;;11.65;57.87;98356.16;6173610;28;20205;-70
2021/10/26 09:43:08;;;;;;;6.57;4.63;;;;;;;11.92;57.80;98353.28;6156347;28;20814;-70
2021/10/26 09:46:10;;;;;;;8.30;5.90;;;;;;;12.16;57.77;98353.25;6172960;28;20218;-70
2021/10/26 09:49:39;;;;;;;5.13;4.63;;;;;;;12.41;56.96;98355.69;6173284;28;20234;-70
2021/10/26 09:52:50;;;;;;;8.07;6.00;;;;;;;12.49;54.74;98355.94;6155314;28;20703;-69
2021/10/26 09:55:52;;;;;;;5.93;4.70;;;;;;;12.75;54.11;98342.47;6168604;28;20311;-70
2021/10/26 09:59:14;;;;;;;5.27;4.73;;;;;;;13.08;54.17;98347.75;6155470;28;20199;-71
2021/10/26 10:02:22;;;;;;;7.90;6.00;;;;;;;13.14;53.77;98343.81;6171138;28;20311;-69
2021/10/26 10:05:44;;;;;;;6.13;5.40;;;;;;;13.10;53.40;98353.78;6162254;28;20227;-70
2021/10/26 10:08:46;;;;;;;6.10;5.23;;;;;;;13.25;52.62;98347.28;6148723;29;20180;-69
2021/10/26 10:12:07;;;;;;;8.10;5.50;;;;;;;13.43;51.90;98341.47;6170003;28;20367;-69
2021/10/26 10:15:11;;;;;;;9.30;7.30;;;;;;;13.37;51.18;98348.13;6172311;28;20208;-69
2021/10/26 10:18:19;;;;;;;7.00;6.10;;;;;;;13.25;51.81;98347.28;6172609;28;20258;-69
2021/10/26 10:21:25;;;;;;;8.70;5.67;;;;;;;13.39;52.25;98334.72;6172388;28;20204;-69
2021/10/26 10:24:29;;;;;;;7.13;4.57;;;;;;;13.53;52.22;98335.28;6170390;28;20402;-70
2021/10/26 10:27:35;;;;;;;3.90;3.50;;;;;;;13.79;51.69;98340.25;6171370;28;20206;-70
2021/10/26 10:30:38;;;;;;;4.43;3.23;;;;;;;14.07;52.77;98339.66;6166470;28;20680;-70
2021/10/26 10:33:45;;;;;;;4.23;3.10;;;;;;;14.38;51.23;98332.56;6151856;28;20719;-70
2021/10/26 10:36:52;;;;;;;6.50;3.60;;;;;;;14.67;51.40;98325.59;6171153;28;20291;-70
2021/10/26 10:39:58;;;;;;;3.93;2.83;;;;;;;14.78;49.26;98319.38;6172579;28;20634;-69
2021/10/26 10:43:01;;;;;;;5.40;2.90;;;;;;;14.74;48.68;98320.63;6170602;28;20217;-70
2021/10/26 10:46:03;;;;;;;5.23;3.20;;;;;;;14.56;46.42;98307.13;6171603;28;20237;-69
2021/10/26 10:49:41;;;;;;;3.77;2.50;;;;;;;14.40;47.57;98306.75;6138840;28;20736;-69
2021/10/26 10:52:43;;;;;;;3.00;2.57;;;;;;;14.40;48.17;98312.91;6171417;28;20194;-72
2021/10/26 10:55:51;;;;;;;3.63;2.90;;;;;;;14.32;47.46;98303.88;6165963;28;20563;-70
2021/10/26 10:58:54;;;;;;;4.73;2.43;;;;;;;14.36;47.27;98300.00;6159099;28;20285;-70
2021/10/26 11:02:43;;;;;;;2.90;2.60;;;;;;;14.40;47.50;98296.13;6171713;28;21005;-70
2021/10/26 11:05:45;;;;;;;3.87;2.87;;;;;;;14.42;47.91;98290.69;6120269;29;20263;-72
2021/10/26 11:08:48;;;;;;;3.87;2.57;;;;;;;14.34;47.73;98283.34;6120617;29;20319;-70
2021/10/26 11:12:27;;;;;;;2.27;2.00;;;;;;;14.48;48.56;98280.38;6104929;29;20534;-69
2021/10/26 11:15:44;;;;;;;4.43;2.90;;;;;;;14.60;48.28;98281.97;6120271;29;20206;-70
2021/10/26 11:18:48;;;;;;;3.17;2.50;;;;;;;14.68;48.08;98283.94;6120431;29;20278;-73
2021/10/26 11:21:50;;;;;;;2.93;2.43;;;;;;;14.69;48.51;98288.28;6119962;29;20204;-70
2021/10/26 11:25:34;;;;;;;2.57;2.33;;;;;;;14.74;48.29;98289.59;6120503;29;20219;-70
2021/10/26 11:28:38;;;;;;;4.03;3.07;;;;;;;14.74;48.30;98294.91;6104169;29;20204;-69
2021/10/26 11:31:45;;;;;;;3.77;3.37;;;;;;;14.70;47.58;98303.25;6115100;29;20687;-69
2021/10/26 11:34:49;;;;;;;5.43;3.07;;;;;;;14.77;47.81;98283.97;6120029;29;20208;-69
2021/10/26 11:37:51;;;;;;;4.87;4.27;;;;;;;14.71;47.19;98281.03;6119057;28;20631;-69
2021/10/26 11:41:12;;;;;;;5.70;4.20;;;;;;;14.54;47.02;98284.31;6152923;28;20496;-69
2021/10/26 11:44:18;;;;;;;5.37;4.60;;;;;;;14.44;46.10;98278.13;6169238;28;20202;-70
2021/10/26 11:47:21;;;;;;;5.83;4.43;;;;;;;14.39;47.61;98273.19;6169404;28;20250;-70
2021/10/26 11:50:23;;;;;;;5.60;4.13;;;;;;;14.16;46.78;98264.53;6169113;28;20205;-70
2021/10/26 11:53:29;;;;;;;5.60;3.93;;;;;;;14.13;48.73;98263.94;6170935;28;20194;-70
2021/10/26 11:56:34;;;;;;;7.07;5.13;;;;;;;14.10;48.58;98272.16;6162447;28;20194;-70
2021/10/26 11:59:43;;;;;;;5.13;4.63;;;;;;;14.06;48.45;98276.06;6169272;28;20735;-69
2021/10/26 12:03:13;;;;;;;7.07;5.03;;;;;;;14.21;47.68;98266.78;6170879;28;20515;-69
2021/10/26 12:06:35;;;;;;;4.73;4.07;;;;;;;14.29;48.16;98259.84;6169775;28;20209;-69
2021/10/26 12:09:47;;;;;;;7.87;5.50;;;;;;;14.22;47.84;98257.84;6145503;29;20203;-69
2021/10/26 12:12:49;;;;;;;8.63;4.50;;;;;;;14.41;48.33;98257.97;6169944;28;20199;-70
2021/10/26 12:15:51;;;;;;;7.30;5.40;;;;;;;14.42;47.89;98256.16;6170417;28;20221;-69
2021/10/26 12:18:53;;;;;;;8.23;5.20;;;;;;;14.35;47.78;98256.69;6153136;28;20202;-69
2021/10/26 12:21:56;;;;;;;6.17;4.80;;;;;;;14.52;47.52;98268.50;6168752;28;20280;-69
2021/10/26 12:28:21;;;;;;;7.20;4.73;;;;;;;14.37;47.83;98261.84;6152485;28;20206;-69
2021/10/26 12:31:26;;;;;;;5.30;4.10;;;;;;;14.32;47.63;98264.06;6148287;28;20202;-69
2021/10/26 12:34:34;;;;;;;6.00;4.83;;;;;;;14.32;47.91;98256.09;6169291;28;20738;-69
2021/10/26 12:37:36;;;;;;;4.93;4.43;;;;;;;14.29;47.79;98259.84;6170912;28;20753;-69
2021/10/26 12:40:45;;;;;;;4.53;3.70;;;;;;;14.31;47.06;98260.56;6170097;28;20198;-69
2021/10/26 12:43:57;;;;;;;5.10;4.23;;;;;;;14.32;46.56;98256.09;6168456;28;20686;-70
2021/10/26 12:47:04;;;;;;;4.50;4.07;;;;;;;14.27;47.28;98250.34;6168740;28;20597;-69
2021/10/26 12:50:06;;;;;;;5.73;3.73;;;;;;;14.22;46.84;98249.88;6173226;28;20213;-72
2021/10/26 12:53:18;;;;;;;4.90;3.73;;;;;;;14.08;46.87;98244.91;6174906;28;20392;-69
2021/10/26 12:56:26;;;;;;;6.43;3.83;;;;;;;14.02;46.85;98252.44;6164019;28;20191;-69
2021/10/26 12:59:28;;;;;;;5.67;3.63;;;;;;;13.94;46.90;98260.22;6143293;28;20872;-69
2021/10/26 13:02:31;;;;;;;4.50;3.00;;;;;;;13.74;46.65;98253.09;6174529;28;20222;-69
2021/10/26 13:05:49;;;;;;;3.57;2.93;;;;;;;13.54;47.86;98264.53;6173731;28;20340;-69
2021/10/26 13:08:54;;;;;;;3.60;2.90;;;;;;;13.47;47.96;98260.72;6173368;28;20182;-69
2021/10/26 13:12:06;;;;;;;4.07;2.93;;;;;;;13.32;47.31;98269.91;6174015;28;20203;-69
2021/10/26 13:15:21;;;;;;;4.73;3.00;;;;;;;13.24;48.01;98271.38;6157472;28;20892;-69
2021/10/26 13:18:23;;;;;;;4.07;3.30;;;;;;;13.10;48.72;98261.00;6172893;28;20205;-69
2021/10/26 13:21:32;;;;;;;5.27;3.40;;;;;;;13.07;49.08;98273.69;6172675;28;20661;-73
2021/10/26 13:24:35;;;;;;;6.57;4.30;;;;;;;13.08;49.73;98267.41;6174011;28;20206;-70
2021/10/26 13:27:38;;;;;;;4.77;3.27;;;;;;;13.14;49.46;98266.97;6172344;28;20228;-69
2021/10/26 13:30:47;;;;;;;7.73;4.03;;;;;;;13.22;49.82;98256.56;6169332;28;20221;-69
2021/10/26 13:33:49;;;;;;;4.40;3.57;;;;;;;13.41;49.26;98261.19;6158654;28;20581;-69
2021/10/26 13:36:51;;;;;;;6.40;3.87;;;;;;;13.64;49.07;98252.19;6173287;28;20224;-69
2021/10/26 13:39:53;;;;;;;3.90;3.20;;;;;;;13.80;49.50;98257.88;6172732;28;20200;-69
2021/10/26 13:42:55;;;;;;;4.87;3.50;;;;;;;13.95;48.46;98258.41;6173451;28;20201;-69
2021/10/26 13:46:00;;;;;;;6.00;3.47;;;;;;;14.15;48.09;98256.69;6173554;28;20223;-69
2021/10/26 13:49:02;;;;;;;5.40;4.03;;;;;;;14.21;48.19;98262.31;6173201;28;20230;-69
2021/10/26 13:52:05;;;;;;;5.17;3.90;;;;;;;14.23;48.25;98262.19;6173457;28;20201;-69
2021/10/26 13:55:08;;;;;;;5.63;3.97;;;;;;;14.11;48.67;98265.88;6172579;28;20317;-69
2021/10/26 13:58:11;;;;;;;4.43;2.77;;;;;;;14.08;50.39;98268.78;6159957;28;20562;-69
2021/10/26 14:01:16;;;;;;;6.77;1.90;;;;;;;14.02;51.65;98276.31;6171395;28;20296;-69
2021/10/26 14:04:18;;;;;;;3.30;2.60;;;;;;;13.98;51.15;98279.34;6172713;28;20205;-70
2021/10/26 14:07:20;;;;;;;5.97;4.00;;;;;;;13.88;52.49;98281.94;6173126;28;20755;-69
2021/10/26 14:10:22;;;;;;;5.37;3.77;;;;;;;13.80;52.67;98273.78;6173310;28;20219;-69
2021/10/26 14:13:26;;;;;;;5.50;4.60;;;;;;;13.74;52.40;98287.56;6172884;28;20205;-69
2021/10/26 14:16:32;;;;;;;6.20;4.67;;;;;;;13.71;52.48;98287.81;6172893;28;20281;-69
2021/10/26 14:19:34;;;;;;;5.07;3.70;;;;;;;13.62;52.38;98293.91;6172872;28;20194;-69
2021/10/26 14:22:42;;;;;;;6.60;4.33;;;;;;;13.55;53.89;98295.38;6173271;28;21081;-70
2021/10/26 14:25:45;;;;;;;4.93;4.03;;;;;;;13.38;53.37;98293.25;6172656;28;20213;-69
2021/10/26 14:28:47;;;;;;;6.90;4.80;;;;;;;13.10;54.88;98300.78;6172420;28;20581;-69
2021/10/26 14:31:49;;;;;;;4.13;3.43;;;;;;;12.98;55.84;98300.94;6163041;28;20216;-69
2021/10/26 14:34:54;;;;;;;3.97;3.57;;;;;;;12.86;56.48;98302.75;6171749;28;20202;-69
2021/10/26 14:57:25;;;;;;;3.47;3.17;;;;;;;11.88;59.42;98306.03;6168204;28;20205;-69
2021/10/26 15:00:27;;;;;;;5.23;3.80;;;;;;;11.83;59.83;98307.22;6171956;28;20278;-70
2021/10/26 15:03:29;;;;;;;5.07;4.43;;;;;;;11.68;60.33;98312.78;6171736;28;20203;-70
2021/10/26 15:06:35;;;;;;;4.13;3.47;;;;;;;11.52;60.56;98318.34;6171216;28;20212;-69
2021/10/26 15:10:00;;;;;;;3.90;3.40;;;;;;;11.45;60.89;98322.41;6171916;28;20638;-70